createdAt,value
2018-09-28T00:02:27.240Z,92.58
2018-09-28T00:05:31.544Z,91.68
2018-09-28T00:08:35.830Z,92.35
2018-09-28T00:11:40.088Z,92.04
2018-09-28T00:14:44.379Z,92.20
2018-09-28T00:17:49.891Z,91.63
2018-09-28T00:20:54.182Z,93.02
2018-09-28T00:23:58.448Z,92.75
2018-09-28T00:27:02.712Z,90.59
2018-09-28T00:30:07.218Z,90.62
2018-09-28T00:33:11.543Z,90.25
2018-09-28T00:36:16.132Z,91.12
2018-09-28T00:39:20.433Z,89.94
2018-09-28T00:42:24.689Z,88.30
2018-09-28T00:45:28.957Z,89.77
2018-09-28T00:48:33.262Z,89.72
2018-09-28T00:51:37.533Z,88.33
2018-09-28T00:54:41.822Z,87.08
2018-09-28T00:57:46.097Z,85.69
2018-09-28T01:00:50.436Z,85.60
2018-09-28T01:03:54.713Z,86.26
2018-09-28T01:06:59.014Z,85.20
2018-09-28T01:10:03.301Z,86.20
2018-09-28T01:13:07.715Z,86.02
2018-09-28T01:16:12.054Z,85.87
2018-09-28T01:19:16.339Z,85.89
2018-09-28T01:22:20.663Z,86.11
2018-09-28T01:25:24.953Z,87.16
2018-09-28T01:28:29.239Z,86.97
2018-09-28T01:31:33.550Z,87.69
2018-09-28T01:34:39.140Z,86.84
2018-09-28T01:37:43.437Z,87.13
2018-09-28T01:40:47.764Z,87.83
2018-09-28T01:43:52.057Z,88.20
2018-09-28T01:46:56.324Z,88.63
2018-09-28T01:50:01.139Z,88.98
2018-09-28T01:53:05.422Z,88.69
2018-09-28T01:56:09.708Z,89.31
2018-09-28T01:59:14.002Z,90.17
2018-09-28T02:02:18.291Z,90.02
2018-09-28T02:05:22.553Z,90.02
2018-09-28T02:08:26.824Z,90.06
2018-09-28T02:11:31.081Z,90.26
2018-09-28T02:14:35.353Z,89.96
2018-09-28T02:17:39.635Z,90.18
2018-09-28T02:20:45.496Z,91.48
2018-09-28T02:23:49.790Z,91.31
2018-09-28T02:26:54.085Z,91.68
2018-09-28T02:29:58.366Z,91.54
2018-09-28T02:33:02.703Z,91.57
2018-09-28T02:36:07.000Z,91.75
2018-09-28T02:39:11.260Z,92.61
2018-09-28T02:42:15.508Z,92.53
2018-09-28T02:45:19.781Z,92.06
2018-09-28T02:48:24.110Z,91.82
2018-09-28T02:51:28.490Z,92.22
2018-09-28T02:54:32.740Z,92.62
2018-09-28T02:57:37.028Z,92.33
2018-09-28T03:00:41.302Z,92.53
2018-09-28T03:03:45.604Z,92.86
2018-09-28T03:06:50.812Z,92.83
2018-09-28T03:09:55.112Z,92.00
2018-09-28T03:12:59.391Z,92.02
2018-09-28T03:16:03.688Z,92.50
2018-09-28T03:19:07.967Z,93.23
2018-09-28T03:22:12.254Z,93.20
2018-09-28T03:25:16.505Z,92.62
2018-09-28T03:28:20.818Z,93.16
2018-09-28T03:31:25.090Z,93.21
2018-09-28T03:34:29.352Z,93.47
2018-09-28T03:37:33.668Z,93.73
2018-09-28T03:40:38.002Z,93.34
2018-09-28T03:43:42.251Z,93.83
2018-09-28T03:46:46.517Z,93.68
2018-09-28T03:49:51.005Z,94.00
2018-09-28T03:52:55.291Z,93.28
2018-09-28T03:55:59.518Z,93.92
2018-09-28T03:59:03.792Z,93.74
2018-09-28T04:02:08.153Z,93.58
2018-09-28T04:05:12.423Z,93.66
2018-09-28T04:08:17.314Z,93.87
2018-09-28T04:11:21.594Z,94.45
2018-09-28T04:14:25.862Z,94.04
2018-09-28T04:17:30.137Z,94.00
2018-09-28T04:20:34.372Z,94.45
2018-09-28T04:23:39.189Z,94.17
2018-09-28T04:26:44.016Z,94.74
2018-09-28T04:29:48.283Z,94.15
2018-09-28T04:32:52.558Z,94.14
2018-09-28T04:35:56.809Z,93.97
2018-09-28T04:39:01.044Z,93.68
2018-09-28T04:42:05.314Z,93.82
2018-09-28T04:45:09.577Z,93.82
2018-09-28T04:48:14.846Z,93.84
2018-09-28T04:51:19.137Z,93.58
2018-09-28T04:54:23.390Z,93.09
2018-09-28T04:57:27.872Z,92.89
2018-09-28T05:00:32.150Z,93.10
2018-09-28T05:03:36.434Z,92.93
2018-09-28T05:06:41.718Z,92.78
2018-09-28T05:09:46.015Z,93.04
2018-09-28T05:12:50.252Z,92.49
2018-09-28T05:15:54.530Z,92.27
2018-09-28T05:18:58.835Z,93.29
2018-09-28T05:22:04.007Z,93.47
2018-09-28T05:25:08.681Z,92.82
2018-09-28T05:28:12.941Z,93.68
2018-09-28T05:31:17.317Z,93.47
2018-09-28T05:34:21.474Z,92.98
2018-09-28T05:37:25.726Z,93.50
2018-09-28T05:40:29.972Z,92.26
2018-09-28T05:43:35.028Z,93.04
2018-09-28T05:46:39.260Z,92.93
2018-09-28T05:49:43.516Z,92.46
2018-09-28T05:52:47.813Z,92.52
2018-09-28T05:55:52.141Z,92.44
2018-09-28T05:59:01.699Z,92.97
2018-09-28T06:02:11.361Z,92.79
2018-09-28T06:05:21.065Z,92.88
2018-09-28T06:08:25.388Z,93.47
2018-09-28T06:11:29.640Z,92.24
2018-09-28T06:14:33.901Z,92.15
2018-09-28T06:17:38.161Z,92.81
2018-09-28T06:20:42.427Z,92.86
2018-09-28T06:23:46.691Z,92.65
2018-09-28T06:26:50.970Z,92.70
2018-09-28T06:29:55.349Z,92.25
2018-09-28T06:32:59.630Z,90.76
2018-09-28T06:36:03.926Z,90.91
2018-09-28T06:39:08.356Z,90.49
2018-09-28T06:42:12.677Z,91.19
2018-09-28T06:45:16.948Z,91.05
2018-09-28T06:48:21.714Z,90.45
2018-09-28T06:51:26.050Z,90.22
2018-09-28T06:54:30.347Z,90.39
2018-09-28T06:57:34.624Z,90.64
2018-09-28T07:00:45.833Z,90.08
2018-09-28T07:03:50.363Z,90.03
2018-09-28T07:06:54.716Z,87.96
2018-09-28T07:09:58.973Z,88.25
2018-09-28T07:13:03.300Z,89.23
2018-09-28T07:16:07.615Z,88.88
2018-09-28T07:19:11.913Z,88.15
2018-09-28T07:22:16.216Z,87.86
2018-09-28T07:25:20.522Z,88.63
2018-09-28T07:28:24.847Z,88.73
2018-09-28T07:31:29.110Z,88.05
2018-09-28T07:34:33.449Z,87.86
2018-09-28T07:37:37.712Z,85.71
2018-09-28T07:40:42.057Z,85.84
2018-09-28T07:43:46.357Z,85.54
2018-09-28T07:46:50.668Z,85.13
2018-09-28T07:49:54.924Z,85.07
2018-09-28T07:52:59.273Z,84.30
2018-09-28T07:56:03.572Z,82.77
2018-09-28T07:59:07.900Z,83.80
2018-09-28T08:02:12.154Z,82.99
2018-09-28T08:05:16.471Z,83.60
2018-09-28T08:08:20.796Z,80.98
2018-09-28T08:11:25.100Z,82.54
2018-09-28T08:14:29.392Z,80.57
2018-09-28T08:17:33.731Z,80.97
2018-09-28T08:20:38.009Z,80.94
2018-09-28T08:23:42.946Z,82.58
2018-09-28T08:26:47.251Z,79.16
2018-09-28T08:29:51.542Z,81.04
2018-09-28T08:32:56.010Z,79.10
2018-09-28T08:36:01.411Z,78.37
2018-09-28T08:39:08.217Z,77.55
2018-09-28T08:42:14.315Z,77.23
2018-09-28T08:45:18.598Z,76.43
2018-09-28T08:48:22.856Z,77.03
2018-09-28T08:51:27.141Z,78.19
2018-09-28T08:54:31.396Z,78.45
2018-09-28T08:57:35.682Z,78.76
2018-09-28T09:00:39.932Z,75.73
2018-09-28T09:03:44.207Z,76.53
2018-09-28T09:06:48.485Z,77.26
2018-09-28T09:09:52.736Z,73.30
2018-09-28T09:12:57.013Z,74.62
2018-09-28T09:16:01.251Z,74.18
2018-09-28T09:19:05.556Z,72.89
2018-09-28T09:22:09.949Z,74.92
2018-09-28T09:25:14.212Z,75.38
2018-09-28T09:28:18.552Z,75.22
2018-09-28T09:31:22.820Z,75.12
2018-09-28T09:34:27.125Z,73.15
2018-09-28T09:37:31.533Z,73.06
2018-09-28T09:40:35.841Z,71.98
2018-09-28T09:43:40.118Z,70.83
2018-09-28T09:46:44.358Z,71.62
2018-09-28T09:49:48.663Z,72.35
2018-09-28T09:52:53.722Z,72.16
2018-09-28T09:55:58.064Z,73.39
2018-09-28T09:59:02.325Z,73.17
2018-09-28T10:02:11.921Z,73.95
2018-09-28T10:05:16.207Z,75.69
2018-09-28T10:08:20.513Z,73.91
2018-09-28T10:11:24.793Z,73.09
2018-09-28T10:14:29.087Z,75.12
2018-09-28T10:17:33.406Z,75.07
2018-09-28T10:20:37.678Z,76.76
2018-09-28T10:23:41.981Z,75.89
2018-09-28T10:26:46.325Z,72.20
2018-09-28T10:29:50.594Z,75.15
2018-09-28T10:32:54.881Z,72.71
2018-09-28T10:35:59.124Z,70.69
2018-09-28T10:39:03.467Z,71.27
2018-09-28T10:42:08.038Z,71.02
2018-09-28T10:45:12.397Z,74.25
2018-09-28T10:48:16.645Z,77.08
2018-09-28T10:51:21.042Z,74.73
2018-09-28T10:54:25.308Z,70.78
2018-09-28T10:57:29.674Z,69.00
2018-09-28T11:00:34.019Z,71.17
2018-09-28T11:03:38.389Z,69.72
2018-09-28T11:06:42.661Z,73.39
2018-09-28T11:09:47.071Z,72.28
2018-09-28T11:12:51.333Z,71.25
2018-09-28T11:15:55.625Z,70.39
2018-09-28T11:18:59.947Z,72.33
2018-09-28T11:22:04.186Z,73.67
2018-09-28T11:25:08.512Z,72.08
2018-09-28T11:28:12.797Z,72.58
2018-09-28T11:31:17.065Z,74.26
2018-09-28T11:34:21.359Z,75.46
2018-09-28T11:37:25.651Z,75.42
2018-09-28T11:40:30.568Z,75.50
2018-09-28T11:43:34.833Z,76.50
2018-09-28T11:46:39.093Z,76.13
2018-09-28T11:49:43.339Z,76.36
2018-09-28T11:52:47.624Z,70.61
2018-09-28T11:55:51.893Z,70.26
2018-09-28T11:58:56.169Z,69.02
2018-09-28T12:02:00.419Z,68.38
2018-09-28T12:05:04.693Z,69.24
2018-09-28T12:08:08.945Z,70.40
2018-09-28T12:11:13.228Z,68.03
2018-09-28T12:14:17.491Z,66.92
2018-09-28T12:17:22.880Z,66.08
2018-09-28T12:20:27.179Z,64.10
2018-09-28T12:23:31.481Z,65.51
2018-09-28T12:26:35.791Z,66.18
2018-09-28T12:29:40.054Z,69.29
2018-09-28T12:32:44.337Z,67.92
2018-09-28T12:35:48.677Z,64.07
2018-09-28T12:38:53.007Z,63.46
2018-09-28T12:41:57.243Z,62.55
2018-09-28T12:45:01.529Z,66.21
2018-09-28T12:48:05.859Z,63.56
2018-09-28T12:51:10.136Z,63.23
2018-09-28T12:54:14.414Z,63.07
2018-09-28T12:57:18.647Z,62.84
2018-09-28T13:00:25.130Z,62.50
2018-09-28T13:03:29.307Z,63.05
2018-09-28T13:06:33.632Z,62.70
2018-09-28T13:09:37.928Z,64.72
2018-09-28T13:12:42.214Z,65.48
2018-09-28T13:15:46.860Z,66.46
2018-09-28T13:18:52.147Z,68.79
2018-09-28T13:21:56.375Z,67.11
2018-09-28T13:25:00.672Z,66.16
2018-09-28T13:28:04.998Z,66.73
2018-09-28T13:31:09.317Z,68.06
2018-09-28T13:34:13.584Z,68.50
2018-09-28T13:37:17.826Z,66.48
2018-09-28T13:40:22.222Z,65.73
2018-09-28T13:43:26.491Z,67.40
2018-09-28T13:46:30.972Z,67.88
2018-09-28T13:49:35.134Z,65.48
2018-09-28T13:52:39.510Z,62.45
2018-09-28T13:55:43.812Z,65.18
2018-09-28T13:58:48.148Z,60.99
2018-09-28T14:01:52.381Z,63.75
2018-09-28T14:04:56.667Z,62.22
2018-09-28T14:08:00.945Z,63.34
2018-09-28T14:11:05.273Z,66.33
2018-09-28T14:14:09.555Z,68.34
2018-09-28T14:17:13.924Z,68.66
2018-09-28T14:20:18.222Z,66.09
2018-09-28T14:23:22.496Z,67.58
2018-09-28T14:26:26.840Z,69.53
2018-09-28T14:29:31.096Z,69.46
2018-09-28T14:32:35.436Z,71.86
2018-09-28T14:35:39.700Z,70.91
2018-09-28T14:38:45.157Z,70.91
2018-09-28T14:41:49.991Z,72.11
2018-09-28T14:44:54.236Z,73.13
2018-09-28T14:47:58.559Z,73.41
2018-09-28T14:51:02.977Z,72.44
2018-09-28T14:54:07.318Z,69.46
2018-09-28T14:57:11.561Z,68.54
2018-09-28T15:00:15.931Z,70.45
2018-09-28T15:03:20.309Z,70.13
2018-09-28T15:06:24.613Z,70.54
2018-09-28T15:09:28.832Z,72.51
2018-09-28T15:12:33.690Z,71.74
2018-09-28T15:15:37.943Z,71.71
2018-09-28T15:18:43.362Z,72.29
2018-09-28T15:21:47.577Z,71.34
2018-09-28T15:24:51.858Z,70.53
2018-09-28T15:27:56.217Z,70.73
2018-09-28T15:31:00.514Z,71.14
2018-09-28T15:34:04.813Z,75.68
2018-09-28T15:37:09.103Z,78.13
2018-09-28T15:40:13.357Z,77.80
2018-09-28T15:43:17.681Z,77.33
2018-09-28T15:46:21.970Z,78.22
2018-09-28T15:49:26.379Z,77.24
2018-09-28T15:52:30.629Z,77.35
2018-09-28T15:55:34.859Z,77.69
2018-09-28T15:58:39.277Z,79.26
2018-09-28T16:01:43.553Z,79.62
2018-09-28T16:04:47.849Z,77.87
2018-09-28T16:07:52.162Z,78.34
2018-09-28T16:10:56.442Z,79.28
2018-09-28T16:14:00.691Z,76.49
2018-09-28T16:17:04.974Z,76.99
2018-09-28T16:20:09.513Z,75.91
2018-09-28T16:23:13.821Z,76.37
2018-09-28T16:26:18.100Z,75.75
2018-09-28T16:29:22.386Z,74.07
2018-09-28T16:32:27.394Z,74.19
2018-09-28T16:35:31.765Z,73.53
2018-09-28T16:38:36.041Z,71.75
2018-09-28T16:41:41.189Z,72.60
2018-09-28T16:44:45.473Z,73.39
2018-09-28T16:47:49.802Z,74.40
2018-09-28T16:50:54.051Z,74.31
2018-09-28T16:53:58.325Z,75.48
2018-09-28T16:57:02.597Z,75.76
2018-09-28T17:00:06.897Z,75.93
2018-09-28T17:03:11.205Z,76.96
2018-09-28T17:06:15.568Z,77.16
2018-09-28T17:09:19.878Z,78.69
2018-09-28T17:12:24.121Z,78.76
2018-09-28T17:15:28.430Z,79.45
2018-09-28T17:18:32.706Z,80.20
2018-09-28T17:21:37.000Z,80.18
2018-09-28T17:24:41.296Z,80.89
2018-09-28T17:27:45.599Z,81.95
2018-09-28T17:30:49.888Z,82.07
2018-09-28T17:33:54.200Z,83.21
2018-09-28T17:36:58.488Z,83.45
2018-09-28T17:40:02.792Z,83.76
2018-09-28T17:43:07.110Z,83.38
2018-09-28T17:46:11.390Z,83.78
2018-09-28T17:49:15.654Z,84.03
2018-09-28T17:52:19.970Z,84.16
2018-09-28T17:55:24.956Z,84.19
2018-09-28T17:58:29.289Z,84.47
2018-09-28T18:01:33.583Z,85.42
2018-09-28T18:04:37.890Z,85.34
2018-09-28T18:07:42.206Z,85.08
2018-09-28T18:10:46.458Z,85.52
2018-09-28T18:13:50.805Z,85.62
2018-09-28T18:16:55.237Z,85.84
2018-09-28T18:19:59.519Z,85.89
2018-09-28T18:23:03.816Z,85.38
2018-09-28T18:26:08.104Z,85.41
2018-09-28T18:29:12.365Z,85.98
2018-09-28T18:32:16.629Z,86.33
2018-09-28T18:35:20.942Z,86.50
2018-09-28T18:38:25.232Z,86.21
2018-09-28T18:41:29.516Z,86.24
2018-09-28T18:44:33.793Z,86.03
2018-09-28T18:47:38.122Z,86.19
2018-09-28T18:50:42.404Z,86.39
2018-09-28T18:53:46.784Z,86.62
2018-09-28T18:56:51.388Z,86.48
2018-09-28T18:59:55.729Z,86.91
2018-09-28T19:03:00.001Z,86.95
2018-09-28T19:06:04.406Z,86.94
2018-09-28T19:09:11.894Z,87.15
2018-09-28T19:12:16.949Z,86.71
2018-09-28T19:15:23.825Z,86.64
2018-09-28T19:18:30.043Z,86.70
2018-09-28T19:21:35.103Z,86.94
2018-09-28T19:24:39.946Z,86.84
2018-09-28T19:27:44.798Z,87.26
2018-09-28T19:30:53.689Z,87.41
2018-09-28T19:33:58.027Z,88.09
2018-09-28T19:37:03.445Z,87.67
2018-09-28T19:40:09.873Z,88.40
2018-09-28T19:43:16.672Z,87.69
2018-09-28T19:46:21.749Z,87.55
2018-09-28T19:49:28.172Z,87.72
2018-09-28T19:52:33.104Z,88.09
2018-09-28T19:55:37.904Z,88.36
2018-09-28T19:58:43.442Z,88.92
2018-09-28T20:01:51.539Z,88.71
2018-09-28T20:04:56.022Z,88.95
2018-09-28T20:08:01.514Z,88.94
2018-09-28T20:11:06.853Z,89.45
2018-09-28T20:14:13.086Z,89.23
2018-09-28T20:17:17.594Z,90.03
2018-09-28T20:20:22.780Z,90.29
2018-09-28T20:23:28.442Z,90.04
2018-09-28T20:26:33.823Z,90.76
2018-09-28T20:29:38.987Z,90.89
2018-09-28T20:32:43.742Z,90.90
2018-09-28T20:35:48.493Z,90.69
2018-09-28T20:38:54.422Z,91.12
2018-09-28T20:41:59.845Z,91.33
2018-09-28T20:45:04.148Z,91.37
2018-09-28T20:48:08.690Z,91.61
2018-09-28T20:51:14.028Z,91.94
2018-09-28T20:54:18.520Z,92.82
2018-09-28T20:57:22.785Z,92.29
2018-09-28T21:00:27.077Z,92.60
2018-09-28T21:03:31.344Z,92.83
2018-09-28T21:06:35.574Z,93.21
2018-09-28T21:09:39.900Z,93.20
2018-09-28T21:12:44.137Z,93.64
2018-09-28T21:15:48.460Z,94.17
2018-09-28T21:18:53.170Z,94.30
2018-09-28T21:21:57.678Z,94.83
2018-09-28T21:25:01.932Z,94.99
2018-09-28T21:28:06.197Z,94.92
2018-09-28T21:31:10.467Z,94.53
2018-09-28T21:34:14.869Z,95.07
2018-09-28T21:37:19.127Z,95.32
2018-09-28T21:40:24.321Z,95.53
2018-09-28T21:43:28.574Z,95.41
2018-09-28T21:46:33.442Z,95.81
2018-09-28T21:49:37.754Z,96.39
2018-09-28T21:52:42.112Z,97.10
2018-09-28T21:55:46.592Z,96.47
2018-09-28T21:58:50.872Z,96.09
2018-09-28T22:01:55.134Z,96.92
2018-09-28T22:04:59.675Z,96.72
2018-09-28T22:08:04.272Z,96.61
2018-09-28T22:11:09.921Z,96.50
2018-09-28T22:14:15.085Z,97.41
2018-09-28T22:17:20.308Z,96.63
2018-09-28T22:20:24.747Z,96.27
2018-09-28T22:23:29.022Z,95.62
2018-09-28T22:26:34.293Z,96.18
2018-09-28T22:29:38.669Z,96.74
2018-09-28T22:32:42.939Z,97.18
2018-09-28T22:35:47.193Z,97.21
2018-09-28T22:38:51.428Z,98.26
2018-09-28T22:41:55.734Z,98.18
2018-09-28T22:45:00.021Z,98.25
2018-09-28T22:48:04.287Z,98.31
2018-09-28T22:51:08.545Z,97.98
2018-09-28T22:54:12.789Z,98.32
2018-09-28T22:57:17.039Z,98.78
2018-09-28T23:00:21.317Z,98.46
2018-09-28T23:03:25.565Z,99.10
2018-09-28T23:06:29.824Z,99.40
2018-09-28T23:09:34.105Z,98.68
2018-09-28T23:12:38.436Z,98.06
2018-09-28T23:15:42.699Z,98.06
2018-09-28T23:18:46.966Z,97.60
2018-09-28T23:21:51.878Z,97.71
2018-09-28T23:24:56.121Z,98.01
2018-09-28T23:28:00.335Z,97.99
2018-09-28T23:31:04.606Z,98.71
2018-09-28T23:34:08.873Z,97.95
2018-09-28T23:37:13.126Z,98.54
2018-09-28T23:40:17.389Z,98.15
2018-09-28T23:43:21.658Z,98.24
2018-09-28T23:46:25.882Z,98.23
2018-09-28T23:49:30.305Z,98.77
2018-09-28T23:52:34.561Z,98.99
2018-09-28T23:55:38.790Z,99.31
2018-09-28T23:58:43.045Z,99.14
